createdAt,value
2023-04-10T00:00:04.919Z,59.2
2023-04-10T00:01:05.941Z,58.9
2023-04-10T00:02:07.119Z,58.7
2023-04-10T00:03:08.384Z,58.7
2023-04-10T00:04:09.068Z,58.8
2023-04-10T00:05:09.965Z,59
2023-04-10T00:06:10.915Z,59
2023-04-10T00:07:12.038Z,59.1
2023-04-10T00:08:13.064Z,59.3
2023-04-10T00:09:13.876Z,59.6
2023-04-10T00:10:14.878Z,59.7
2023-04-10T00:11:15.918Z,59.6
2023-04-10T00:12:16.931Z,59.5
2023-04-10T00:13:17.843Z,58.9
2023-04-10T00:14:18.980Z,59.5
2023-04-10T00:15:19.958Z,59.7
2023-04-10T00:16:20.917Z,59.8
2023-04-10T00:17:21.930Z,59.8
2023-04-10T00:18:22.869Z,59.8
2023-04-10T00:19:23.979Z,59.7
2023-04-10T00:20:24.966Z,59.5
2023-04-10T00:21:26.063Z,59.3
2023-04-10T00:22:27.058Z,59.1
2023-04-10T00:23:28.059Z,59.1
2023-04-10T00:24:28.879Z,59.2
2023-04-10T00:25:29.877Z,59.2
2023-04-10T00:26:30.918Z,59.1
2023-04-10T00:27:31.945Z,59
2023-04-10T00:28:32.962Z,58.4
2023-04-10T00:29:33.980Z,58.6
2023-04-10T00:30:34.903Z,58.7
2023-04-10T00:31:35.953Z,58.7
2023-04-10T00:32:37.147Z,58.6
2023-04-10T00:33:37.932Z,58.5
2023-04-10T00:34:39.039Z,58.3
2023-04-10T00:35:39.871Z,57.9
2023-04-10T00:36:41.627Z,58.2
2023-04-10T00:37:42.860Z,58
2023-04-10T00:38:43.979Z,58.1
2023-04-10T00:39:44.865Z,58.3
2023-04-10T00:40:45.866Z,58.5
2023-04-10T00:41:46.965Z,58.7
2023-04-10T00:42:47.904Z,58.4
2023-04-10T00:43:48.881Z,58.3
2023-04-10T00:44:49.902Z,58.3
2023-04-10T00:45:51.009Z,58.2
2023-04-10T00:46:51.980Z,58.1
2023-04-10T00:47:52.975Z,57.9
2023-04-10T00:48:53.901Z,57.8
2023-04-10T00:49:54.937Z,57.8
2023-04-10T00:50:55.840Z,57.7
2023-04-10T00:51:58.398Z,57.7
2023-04-10T00:52:57.928Z,57.9
2023-04-10T00:53:58.947Z,57.9
2023-04-10T00:55:00.149Z,57.9
2023-04-10T00:56:01.039Z,57.8
2023-04-10T00:57:01.941Z,57.9
2023-04-10T00:58:02.880Z,57.9
2023-04-10T00:59:05.207Z,57.9
2023-04-10T01:00:04.931Z,57.9
2023-04-10T01:01:05.954Z,57.8
2023-04-10T01:02:07.075Z,58
2023-04-10T01:03:08.094Z,57.9
2023-04-10T01:04:09.019Z,58.1
2023-04-10T01:05:09.903Z,58.2
2023-04-10T01:06:10.998Z,59.4
2023-04-10T01:07:11.937Z,59.9
2023-04-10T01:08:12.900Z,60
2023-04-10T01:09:13.918Z,59.7
2023-04-10T01:10:14.928Z,59
2023-04-10T01:11:15.889Z,58.7
2023-04-10T01:12:16.881Z,58.6
2023-04-10T01:13:17.912Z,58.7
2023-04-10T01:14:18.985Z,58.6
2023-04-10T01:15:19.917Z,58.6
2023-04-10T01:16:20.966Z,58.6
2023-04-10T01:17:22.332Z,58.6
2023-04-10T01:18:22.909Z,58.7
2023-04-10T01:19:24.427Z,58.7
2023-04-10T01:20:26.124Z,58.6
2023-04-10T01:21:26.946Z,58.6
2023-04-10T01:22:27.965Z,58.5
2023-04-10T01:23:28.900Z,58.5
2023-04-10T01:24:30.127Z,58.9
2023-04-10T01:25:31.337Z,59.4
2023-04-10T01:26:32.976Z,59.2
2023-04-10T01:27:33.939Z,59.7
2023-04-10T01:28:34.900Z,59.8
2023-04-10T01:29:35.946Z,60
2023-04-10T01:30:37.034Z,60.1
2023-04-10T01:31:37.958Z,60.1
2023-04-10T01:32:38.988Z,60.1
2023-04-10T01:33:39.942Z,60.2
2023-04-10T01:34:41.105Z,60.1
2023-04-10T01:35:42.324Z,60
2023-04-10T01:36:42.978Z,60
2023-04-10T01:37:43.919Z,59.7
2023-04-10T01:38:44.901Z,59.7
2023-04-10T01:39:45.938Z,59.6
2023-04-10T01:40:46.978Z,59.6
2023-04-10T01:41:48.021Z,59.7
2023-04-10T01:42:48.998Z,59.9
2023-04-10T01:43:49.944Z,59.7
2023-04-10T01:44:50.940Z,59.7
2023-04-10T01:45:52.008Z,59.8
2023-04-10T01:46:52.944Z,59.9
2023-04-10T01:47:53.988Z,59.9
2023-04-10T01:48:54.887Z,59.9
2023-04-10T01:49:56.121Z,59.8
2023-04-10T01:50:57.079Z,59.9
2023-04-10T01:51:57.947Z,60
2023-04-10T01:52:58.974Z,60.1
2023-04-10T01:54:00.022Z,60
2023-04-10T01:55:01.047Z,60
2023-04-10T01:56:02.042Z,60
2023-04-10T01:57:02.944Z,59.9
2023-04-10T01:58:04.009Z,59.9
2023-04-10T01:59:04.979Z,59.8
2023-04-10T02:00:06.048Z,59.7
2023-04-10T02:01:07.658Z,59.6
2023-04-10T02:02:08.031Z,59.6
2023-04-10T02:03:09.771Z,59.8
2023-04-10T02:04:11.042Z,59.9
2023-04-10T02:05:11.895Z,59.9
2023-04-10T02:06:12.961Z,60
2023-04-10T02:07:13.961Z,60
2023-04-10T02:08:15.073Z,60.2
2023-04-10T02:09:18.880Z,60.5
2023-04-10T02:10:20.100Z,60.6
2023-04-10T02:11:21.103Z,60.9
2023-04-10T02:12:22.225Z,61
2023-04-10T02:13:23.619Z,60.8
2023-04-10T02:14:25.280Z,61.2
2023-04-10T02:15:26.338Z,61.3
2023-04-10T02:16:28.215Z,61.1
2023-04-10T02:17:29.119Z,61.1
2023-04-10T02:18:30.339Z,61
2023-04-10T02:19:32.073Z,61
2023-04-10T02:20:33.152Z,60.6
2023-04-10T02:21:34.186Z,60.6
2023-04-10T02:22:35.095Z,60.6
2023-04-10T02:23:36.144Z,60.5
2023-04-10T02:24:37.067Z,60.2
2023-04-10T02:25:38.121Z,60.2
2023-04-10T02:26:39.158Z,60
2023-04-10T02:27:40.064Z,59.7
2023-04-10T02:28:41.107Z,59.9
2023-04-10T02:29:42.138Z,59.9
2023-04-10T02:30:43.119Z,60.2
2023-04-10T02:31:44.165Z,60.2
2023-04-10T02:32:45.074Z,60.2
2023-04-10T02:33:46.141Z,60.2
2023-04-10T02:34:47.119Z,60.2
2023-04-10T02:35:48.263Z,60.2
2023-04-10T02:36:49.141Z,60
2023-04-10T02:37:50.080Z,59.8
2023-04-10T02:38:51.186Z,59.9
2023-04-10T02:39:52.178Z,59.8
2023-04-10T02:40:53.140Z,59.9
2023-04-10T02:41:54.079Z,59.9
2023-04-10T02:42:55.160Z,60
2023-04-10T02:43:56.148Z,60.1
2023-04-10T02:44:57.120Z,60.1
2023-04-10T02:45:58.146Z,60.3
2023-04-10T02:46:59.212Z,60.3
2023-04-10T02:48:00.333Z,60.2
2023-04-10T02:49:01.287Z,60.1
2023-04-10T02:50:02.175Z,59.9
2023-04-10T02:51:03.105Z,59.9
2023-04-10T02:52:04.142Z,60
2023-04-10T02:53:05.125Z,60.1
2023-04-10T02:54:06.169Z,60.2
2023-04-10T02:55:07.106Z,60.4
2023-04-10T02:56:08.222Z,60.6
2023-04-10T02:57:09.050Z,60.9
2023-04-10T02:58:10.038Z,61
2023-04-10T02:59:11.060Z,61.1
2023-04-10T03:00:12.081Z,61.1
2023-04-10T03:01:13.203Z,61
2023-04-10T03:02:14.327Z,60.8
2023-04-10T03:03:15.847Z,60.9
2023-04-10T03:04:17.200Z,61
2023-04-10T03:05:18.093Z,61.2
2023-04-10T03:06:19.253Z,61.1
2023-04-10T03:07:20.081Z,61
2023-04-10T03:08:21.146Z,60.8
2023-04-10T03:09:22.192Z,60.5
2023-04-10T03:10:23.125Z,60.4
2023-04-10T03:11:24.880Z,60.2
2023-04-10T03:12:26.076Z,60.3
2023-04-10T03:13:27.161Z,60.2
2023-04-10T03:14:28.121Z,60.2
2023-04-10T03:15:29.162Z,60.4
2023-04-10T03:16:30.368Z,60.5
2023-04-10T03:17:32.376Z,60.7
2023-04-10T03:18:34.320Z,60.9
2023-04-10T03:19:35.172Z,61.1
2023-04-10T03:20:36.141Z,61.3
2023-04-10T03:21:37.195Z,61.3
2023-04-10T03:22:38.142Z,61.3
2023-04-10T03:23:39.119Z,61.4
2023-04-10T03:24:40.113Z,61.4
2023-04-10T03:25:41.148Z,61.6
2023-04-10T03:26:42.148Z,61.8
2023-04-10T03:27:43.179Z,61.8
2023-04-10T03:28:44.281Z,61.9
2023-04-10T03:29:45.299Z,61.9
2023-04-10T03:30:46.360Z,62
2023-04-10T03:31:48.302Z,61.8
2023-04-10T03:32:49.247Z,61.7
2023-04-10T03:33:50.168Z,61.6
2023-04-10T03:34:51.100Z,61.2
2023-04-10T03:35:52.291Z,61.4
2023-04-10T03:36:53.481Z,61.4
2023-04-10T03:37:55.468Z,61.5
2023-04-10T03:38:57.184Z,61.6
2023-04-10T03:39:58.349Z,61.5
2023-04-10T03:40:59.192Z,61.6
2023-04-10T03:42:00.360Z,61.6
2023-04-10T03:43:02.559Z,61.7
2023-04-10T03:44:04.373Z,61.8
2023-04-10T03:45:06.243Z,61.7
2023-04-10T03:46:07.161Z,61.8
2023-04-10T03:47:08.166Z,61.9
2023-04-10T03:48:09.541Z,61.4
2023-04-10T03:49:11.864Z,61.4
2023-04-10T03:50:13.108Z,61.6
2023-04-10T03:51:14.079Z,61.9
2023-04-10T03:52:15.280Z,61.9
2023-04-10T03:53:16.082Z,62
2023-04-10T03:54:17.160Z,62
2023-04-10T03:55:18.109Z,62
2023-04-10T03:56:19.168Z,62
2023-04-10T03:57:20.212Z,62.1
2023-04-10T03:58:21.266Z,61.9
2023-04-10T03:59:26.136Z,61.8
2023-04-10T04:00:23.158Z,61.6
2023-04-10T04:01:24.100Z,61.5
2023-04-10T04:02:25.305Z,61.4
2023-04-10T04:03:26.163Z,61.6
2023-04-10T04:04:27.104Z,61.6
2023-04-10T04:05:28.026Z,61.5
2023-04-10T04:06:29.239Z,60.7
2023-04-10T04:07:30.106Z,61.1
2023-04-10T04:08:30.997Z,61.3
2023-04-10T04:09:32.061Z,61.3
2023-04-10T04:10:33.068Z,61.2
2023-04-10T04:11:34.063Z,61.3
2023-04-10T04:12:34.988Z,61.3
2023-04-10T04:13:36.037Z,61.5
2023-04-10T04:14:37.100Z,61.5
2023-04-10T04:15:38.058Z,61.5
2023-04-10T04:16:39.254Z,61.4
2023-04-10T04:17:40.319Z,61.3
2023-04-10T04:18:41.338Z,61.1
2023-04-10T04:19:42.099Z,61.1
2023-04-10T04:20:42.957Z,61.2
2023-04-10T04:21:44.177Z,61.3
2023-04-10T04:22:45.077Z,61.1
2023-04-10T04:23:46.210Z,61.2
2023-04-10T04:24:46.982Z,61.6
2023-04-10T04:25:47.987Z,61.6
2023-04-10T04:26:49.025Z,61.6
2023-04-10T04:27:50.093Z,61.5
2023-04-10T04:28:51.037Z,61.4
2023-04-10T04:29:52.042Z,61.3
2023-04-10T04:30:53.026Z,61.6
2023-04-10T04:31:54.140Z,62
2023-04-10T04:32:55.278Z,61.6
2023-04-10T04:33:56.359Z,61.7
2023-04-10T04:34:57.047Z,61.8
2023-04-10T04:35:58.114Z,61.8
2023-04-10T04:36:59.307Z,61.8
2023-04-10T04:38:00.701Z,61.9
2023-04-10T04:39:02.219Z,61.8
2023-04-10T04:40:03.183Z,61.6
2023-04-10T04:41:04.135Z,61.8
2023-04-10T04:42:04.979Z,61.9
2023-04-10T04:43:06.254Z,62.1
2023-04-10T04:44:07.700Z,62.3
2023-04-10T04:45:09.880Z,62.4
2023-04-10T04:46:11.628Z,62.4
2023-04-10T04:47:13.388Z,62.3
2023-04-10T04:48:14.281Z,62.2
2023-04-10T04:49:15.323Z,61.8
2023-04-10T04:50:16.074Z,62
2023-04-10T04:51:17.001Z,61.9
2023-04-10T04:52:18.049Z,61.9
2023-04-10T04:53:19.161Z,61.9
2023-04-10T04:54:20.026Z,61.8
2023-04-10T04:55:21.046Z,62
2023-04-10T04:56:22.101Z,62.1
2023-04-10T04:57:23.365Z,62.1
2023-04-10T04:58:24.239Z,62.2
2023-04-10T04:59:24.992Z,62.1
2023-04-10T05:00:26.440Z,62
2023-04-10T05:01:28.171Z,62.1
2023-04-10T05:02:29.306Z,62.2
2023-04-10T05:03:30.351Z,62.1
2023-04-10T05:04:31.073Z,62.3
2023-04-10T05:05:32.960Z,62.3
2023-04-10T05:06:34.061Z,62.6
2023-04-10T05:07:35.038Z,63.5
2023-04-10T05:08:36.019Z,64.9
2023-04-10T05:09:37.038Z,66
2023-04-10T05:10:39.092Z,66.5
2023-04-10T05:11:40.165Z,66.5
2023-04-10T05:12:41.323Z,66.3
2023-04-10T05:13:42.374Z,66
2023-04-10T05:14:43.076Z,65.3
2023-04-10T05:15:44.203Z,64.5
2023-04-10T05:16:45.044Z,64
2023-04-10T05:17:46.124Z,64
2023-04-10T05:18:47.208Z,64
2023-04-10T05:19:48.197Z,64
2023-04-10T05:20:49.076Z,64.2
2023-04-10T05:21:50.057Z,64.3
2023-04-10T05:22:51.195Z,64.4
2023-04-10T05:23:52.017Z,64.3
2023-04-10T05:24:53.060Z,64.4
2023-04-10T05:25:54.556Z,64.4
2023-04-10T05:26:56.261Z,64.3
2023-04-10T05:27:57.278Z,64.2
2023-04-10T05:28:58.084Z,64.1
2023-04-10T05:29:59.061Z,65
2023-04-10T05:31:00.067Z,65.3
2023-04-10T05:32:01.091Z,65.4
2023-04-10T05:33:02.166Z,65.4
2023-04-10T05:34:03.402Z,65.3
2023-04-10T05:35:04.119Z,65.2
2023-04-10T05:36:05.096Z,65.1
2023-04-10T05:37:06.115Z,64.9
2023-04-10T05:38:07.137Z,64.7
2023-04-10T05:39:08.062Z,64.5
2023-04-10T05:40:09.058Z,64.2
2023-04-10T05:41:10.015Z,63.9
2023-04-10T05:42:12.423Z,63.8
2023-04-10T05:43:13.090Z,63.9
2023-04-10T05:44:14.106Z,63.9
2023-04-10T05:45:15.307Z,63.2
2023-04-10T05:46:16.004Z,63
2023-04-10T05:47:17.342Z,62.9
2023-04-10T05:48:18.587Z,62.7
2023-04-10T05:49:20.213Z,62.5
2023-04-10T05:50:22.962Z,62.3
2023-04-10T05:51:22.068Z,62.3
2023-04-10T05:52:23.298Z,62.3
2023-04-10T05:53:24.259Z,62.4
2023-04-10T05:54:25.642Z,62.4
2023-04-10T05:55:27.301Z,62.1
2023-04-10T05:56:28.118Z,62
2023-04-10T05:57:29.284Z,61.9
2023-04-10T05:58:30.079Z,61.8
2023-04-10T05:59:31.076Z,61.8
2023-04-10T06:00:32.091Z,61.9
2023-04-10T06:01:33.076Z,62.1
2023-04-10T06:02:34.278Z,62.3
2023-04-10T06:03:35.385Z,62.5
2023-04-10T06:04:36.581Z,62.5
2023-04-10T06:05:37.120Z,62.5
2023-04-10T06:06:38.060Z,62.5
2023-04-10T06:07:39.237Z,62.4
2023-04-10T06:08:40.184Z,62.5
2023-04-10T06:09:41.197Z,62.5
2023-04-10T06:10:42.416Z,62.5
2023-04-10T06:11:43.656Z,62.7
2023-04-10T06:12:45.309Z,62.9
2023-04-10T06:13:46.134Z,63
2023-04-10T06:14:47.219Z,63.1
2023-04-10T06:15:48.258Z,63.2
2023-04-10T06:16:49.160Z,63.2
2023-04-10T06:17:50.119Z,62.9
2023-04-10T06:18:51.058Z,62.9
2023-04-10T06:19:52.649Z,62.9
2023-04-10T06:20:54.179Z,62.9
2023-04-10T06:21:55.357Z,63
2023-04-10T06:22:56.208Z,62.6
2023-04-10T06:23:57.301Z,62.4
2023-04-10T06:24:58.122Z,62.4
2023-04-10T06:25:59.290Z,61.9
2023-04-10T06:27:00.129Z,62.1
2023-04-10T06:28:01.139Z,62.4
2023-04-10T06:29:02.056Z,62.4
2023-04-10T06:30:03.335Z,62.5
2023-04-10T06:31:04.112Z,62.3
2023-04-10T06:32:05.203Z,62.5
2023-04-10T06:33:06.153Z,62.6
2023-04-10T06:34:07.078Z,62.2
2023-04-10T06:35:08.104Z,61.9
2023-04-10T06:36:09.172Z,61.9
2023-04-10T06:37:10.062Z,61.5
2023-04-10T06:38:11.057Z,61.8
2023-04-10T06:39:12.163Z,62
2023-04-10T06:40:13.441Z,62.1
2023-04-10T06:41:14.124Z,62
2023-04-10T06:42:15.503Z,62.1
2023-04-10T06:43:16.236Z,62
2023-04-10T06:44:17.202Z,61.4
2023-04-10T06:45:18.236Z,61.6
2023-04-10T06:46:19.234Z,61.7
2023-04-10T06:47:20.103Z,61.8
2023-04-10T06:48:21.575Z,61.5
2023-04-10T06:49:23.091Z,62.2
2023-04-10T06:50:24.164Z,62.6
2023-04-10T06:51:25.250Z,62.8
2023-04-10T06:52:26.049Z,62.7
2023-04-10T06:53:27.262Z,62.7
2023-04-10T06:54:28.164Z,62.6
2023-04-10T06:55:29.050Z,62.4
2023-04-10T06:56:30.044Z,62.4
2023-04-10T06:57:31.213Z,62.5
2023-04-10T06:58:32.217Z,62.4
2023-04-10T06:59:33.299Z,62
2023-04-10T07:00:34.108Z,61.7
2023-04-10T07:01:35.089Z,61.8
2023-04-10T07:02:36.463Z,61.8
2023-04-10T07:03:37.163Z,61.9
2023-04-10T07:04:38.125Z,61.9
2023-04-10T07:05:41.587Z,61.7
2023-04-10T07:06:40.946Z,61.6
2023-04-10T07:07:42.282Z,61.7
2023-04-10T07:08:43.260Z,61.9
2023-04-10T07:09:44.011Z,62
2023-04-10T07:10:45.821Z,62.2
2023-04-10T07:11:47.227Z,62
2023-04-10T07:12:48.499Z,61.8
2023-04-10T07:13:50.452Z,61.6
2023-04-10T07:14:52.519Z,61.6
2023-04-10T07:15:54.177Z,61.7
2023-04-10T07:16:55.301Z,62
2023-04-10T07:17:56.592Z,62.4
2023-04-10T07:18:58.282Z,62.8
2023-04-10T07:19:59.201Z,63.1
2023-04-10T07:21:00.252Z,63.2
2023-04-10T07:22:01.182Z,62.9
2023-04-10T07:23:02.205Z,62.6
2023-04-10T07:24:03.321Z,62.4
2023-04-10T07:25:04.284Z,62.1
2023-04-10T07:26:05.140Z,62.1
2023-04-10T07:27:06.218Z,61.9
2023-04-10T07:28:07.217Z,62.2
2023-04-10T07:29:08.402Z,62.5
2023-04-10T07:30:10.129Z,62.4
2023-04-10T07:31:10.180Z,62.6
2023-04-10T07:32:11.244Z,62.6
2023-04-10T07:33:12.317Z,62.5
2023-04-10T07:34:13.144Z,62.5
2023-04-10T07:35:14.113Z,62.5
2023-04-10T07:36:15.266Z,62.6
2023-04-10T07:37:16.101Z,62.5
2023-04-10T07:38:17.139Z,62.6
2023-04-10T07:39:18.214Z,62.5
2023-04-10T07:40:19.362Z,62.7
2023-04-10T07:41:20.299Z,62.9
2023-04-10T07:42:21.183Z,63.1
2023-04-10T07:43:22.250Z,63.4
2023-04-10T07:44:23.249Z,63.5
2023-04-10T07:45:24.693Z,63.1
2023-04-10T07:46:26.319Z,63.3
2023-04-10T07:47:27.214Z,63.5
2023-04-10T07:48:28.139Z,63.2
2023-04-10T07:49:29.076Z,62.4
2023-04-10T07:50:30.118Z,62.9
2023-04-10T07:51:31.098Z,63.2
2023-04-10T07:52:32.232Z,63.5
2023-04-10T07:53:33.606Z,63.5
2023-04-10T07:54:35.317Z,63.2
2023-04-10T07:55:36.300Z,62.8
2023-04-10T07:56:37.273Z,62.6
2023-04-10T07:57:38.489Z,62.5
2023-04-10T07:58:39.265Z,62.2
2023-04-10T07:59:40.345Z,62
2023-04-10T08:00:41.230Z,62.3
2023-04-10T08:01:42.282Z,62.5
2023-04-10T08:02:43.349Z,62.8
2023-04-10T08:03:44.439Z,62.7
2023-04-10T08:04:45.600Z,62.4
2023-04-10T08:05:47.172Z,62.4
2023-04-10T08:06:48.360Z,61.9
2023-04-10T08:07:49.306Z,61.4
2023-04-10T08:08:50.293Z,60.9
2023-04-10T08:09:51.214Z,60.6
2023-04-10T08:10:52.261Z,60.3
2023-04-10T08:11:53.282Z,59.3
2023-04-10T08:12:54.309Z,58.9
2023-04-10T08:13:55.235Z,59
2023-04-10T08:14:56.187Z,58.9
2023-04-10T08:15:57.180Z,59.2
2023-04-10T08:16:58.332Z,59.6
2023-04-10T08:17:59.413Z,59.5
2023-04-10T08:19:00.320Z,59.2
2023-04-10T08:20:01.182Z,58.1
2023-04-10T08:21:02.476Z,57.3
2023-04-10T08:22:03.267Z,57.3
2023-04-10T08:23:16.943Z,57.2
2023-04-10T08:24:06.139Z,56.8
2023-04-10T08:25:08.813Z,56.7
2023-04-10T08:26:10.218Z,56.9
2023-04-10T08:27:11.197Z,57.1
2023-04-10T08:28:12.201Z,56.6
2023-04-10T08:29:13.118Z,56
2023-04-10T08:30:14.296Z,55.8
2023-04-10T08:31:15.701Z,56
2023-04-10T08:32:18.178Z,55.8
2023-04-10T08:33:19.297Z,55.8
2023-04-10T08:34:20.220Z,55
2023-04-10T08:35:21.140Z,55.7
2023-04-10T08:36:22.192Z,56.5
2023-04-10T08:37:23.257Z,56.6
2023-04-10T08:38:24.590Z,56.1
2023-04-10T08:39:26.161Z,56.4
2023-04-10T08:40:27.173Z,56.4
2023-04-10T08:41:28.147Z,55.7
2023-04-10T08:42:29.202Z,55.6
2023-04-10T08:43:30.207Z,55.9
2023-04-10T08:44:31.170Z,56
2023-04-10T08:45:32.132Z,56.2
2023-04-10T08:46:33.372Z,56.5
2023-04-10T08:47:34.278Z,56.5
2023-04-10T08:48:35.378Z,56.8
2023-04-10T08:49:36.360Z,56.5
2023-04-10T08:50:37.340Z,56.5
2023-04-10T08:51:38.359Z,55.7
2023-04-10T08:52:39.418Z,55.1
2023-04-10T08:53:40.418Z,54.6
2023-04-10T08:54:41.656Z,53.8
2023-04-10T08:55:43.397Z,54.5
2023-04-10T08:56:44.277Z,55
2023-04-10T08:57:48.121Z,54.1
2023-04-10T08:58:46.357Z,53
2023-04-10T08:59:47.158Z,52
2023-04-10T09:00:48.216Z,52.5
2023-04-10T09:01:49.294Z,53.1
2023-04-10T09:02:50.318Z,53.1
2023-04-10T09:03:51.419Z,52.3
2023-04-10T09:04:52.224Z,51.5
2023-04-10T09:05:53.340Z,51.5
2023-04-10T09:06:54.206Z,51.2
2023-04-10T09:07:55.162Z,50.7
2023-04-10T09:08:56.258Z,50.6
2023-04-10T09:09:57.359Z,50.5
2023-04-10T09:10:58.349Z,50.6
2023-04-10T09:11:59.618Z,51
2023-04-10T09:13:01.389Z,51.2
2023-04-10T09:14:02.469Z,50.8
2023-04-10T09:15:03.217Z,50.5
2023-04-10T09:16:04.403Z,50.2
2023-04-10T09:17:05.563Z,50
2023-04-10T09:18:07.412Z,49.5
2023-04-10T09:19:08.378Z,49.4
2023-04-10T09:20:09.205Z,48.7
2023-04-10T09:21:10.182Z,47.9
2023-04-10T09:22:11.064Z,47.8
2023-04-10T09:23:12.257Z,48.8
2023-04-10T09:24:13.263Z,49.3
2023-04-10T09:25:14.236Z,49.7
2023-04-10T09:26:15.263Z,49.7
2023-04-10T09:27:16.295Z,49.3
2023-04-10T09:28:17.295Z,49.4
2023-04-10T09:29:18.355Z,49.7
2023-04-10T09:30:19.496Z,49.6
2023-04-10T09:31:20.298Z,49.6
2023-04-10T09:32:21.283Z,49.7
2023-04-10T09:33:22.645Z,49.6
2023-04-10T09:34:24.804Z,49
2023-04-10T09:35:26.135Z,49
2023-04-10T09:36:27.158Z,48.9
2023-04-10T09:37:28.214Z,48.6
2023-04-10T09:38:29.258Z,48.5
2023-04-10T09:39:30.181Z,48.4
2023-04-10T09:40:31.174Z,48.2
2023-04-10T09:41:32.166Z,48.3
2023-04-10T09:42:33.234Z,47.4
2023-04-10T09:43:34.258Z,47.4
2023-04-10T09:44:35.306Z,47.4
2023-04-10T09:45:36.282Z,47.7
2023-04-10T09:46:37.294Z,47.2
2023-04-10T09:47:38.389Z,46.8
2023-04-10T09:48:39.277Z,46.3
2023-04-10T09:49:40.115Z,46.2
2023-04-10T09:50:41.331Z,47.1
2023-04-10T09:51:42.331Z,48.5
2023-04-10T09:52:43.358Z,48.9
2023-04-10T09:53:44.453Z,48.8
2023-04-10T09:54:45.653Z,48.1
2023-04-10T09:55:47.261Z,48.3
2023-04-10T09:56:48.198Z,48.9
2023-04-10T09:57:49.222Z,48.8
2023-04-10T09:58:50.257Z,49.4
2023-04-10T09:59:51.196Z,49.8
2023-04-10T10:00:52.192Z,50.7
2023-04-10T10:01:53.451Z,50.8
2023-04-10T10:02:54.853Z,49.6
2023-04-10T10:03:56.209Z,49.9
2023-04-10T10:04:57.226Z,48.6
2023-04-10T10:05:58.218Z,48.3
2023-04-10T10:06:59.236Z,47.8
2023-04-10T10:08:00.493Z,47.4
2023-04-10T10:09:01.378Z,47.7
2023-04-10T10:10:02.341Z,48
2023-04-10T10:11:03.348Z,48.1
2023-04-10T10:12:04.332Z,48.1
2023-04-10T10:13:05.332Z,47.3
2023-04-10T10:14:06.254Z,47.3
2023-04-10T10:15:07.301Z,48.1
2023-04-10T10:16:08.283Z,47.6
2023-04-10T10:17:09.383Z,46.1
2023-04-10T10:18:10.373Z,46.2
2023-04-10T10:19:11.216Z,45.4
2023-04-10T10:20:12.197Z,45.4
2023-04-10T10:21:13.135Z,44.9
2023-04-10T10:22:14.139Z,44.3
2023-04-10T10:23:15.506Z,44.9
2023-04-10T10:24:16.242Z,44.6
2023-04-10T10:25:17.199Z,44.4
2023-04-10T10:26:18.238Z,46.6
2023-04-10T10:27:19.312Z,47.3
2023-04-10T10:28:20.281Z,47
2023-04-10T10:29:21.268Z,47.5
2023-04-10T10:30:29.811Z,47.5
2023-04-10T10:31:23.220Z,47.3
2023-04-10T10:32:24.703Z,48.2
2023-04-10T10:33:26.304Z,47.7
2023-04-10T10:34:27.500Z,46.6
2023-04-10T10:35:29.769Z,44
2023-04-10T10:36:29.279Z,42.5
2023-04-10T10:37:30.240Z,41.8
2023-04-10T10:38:31.134Z,41.6
2023-04-10T10:39:32.281Z,42
2023-04-10T10:40:33.252Z,41.8
2023-04-10T10:41:34.240Z,42.2
2023-04-10T10:42:35.272Z,42.3
2023-04-10T10:43:36.613Z,42.1
2023-04-10T10:44:38.402Z,42.7
2023-04-10T10:45:39.308Z,43.8
2023-04-10T10:46:40.170Z,43.7
2023-04-10T10:47:41.684Z,43.9
2023-04-10T10:48:42.324Z,42.6
2023-04-10T10:49:43.341Z,41.2
2023-04-10T10:50:44.289Z,41.3
2023-04-10T10:51:45.278Z,41.2
2023-04-10T10:52:46.114Z,40.8
2023-04-10T10:53:47.207Z,40.8
2023-04-10T10:54:59.041Z,41.3
2023-04-10T10:55:49.307Z,39.6
2023-04-10T10:56:50.635Z,39.1
2023-04-10T10:57:51.309Z,38.6
2023-04-10T10:58:52.809Z,38.9
2023-04-10T10:59:53.697Z,39.2
2023-04-10T11:00:55.678Z,39.6
2023-04-10T11:01:57.631Z,39.9
2023-04-10T11:02:58.468Z,39.4
2023-04-10T11:03:59.430Z,39.4
2023-04-10T11:05:00.295Z,39
2023-04-10T11:06:01.219Z,38.9
2023-04-10T11:07:02.260Z,37.9
2023-04-10T11:08:03.207Z,37.9
2023-04-10T11:09:04.306Z,37.7
2023-04-10T11:10:05.268Z,37.7
2023-04-10T11:11:06.205Z,38.8
2023-04-10T11:12:07.459Z,39.5
2023-04-10T11:13:08.372Z,38
2023-04-10T11:14:09.632Z,38.1
2023-04-10T11:15:10.361Z,38.6
2023-04-10T11:16:11.924Z,37.9
2023-04-10T11:17:13.405Z,36.5
2023-04-10T11:18:14.570Z,35.8
2023-04-10T11:19:16.343Z,34.4
2023-04-10T11:20:16.268Z,34.4
2023-04-10T11:21:17.719Z,33.5
2023-04-10T11:22:19.603Z,32.4
2023-04-10T11:23:20.304Z,32.9
2023-04-10T11:24:21.408Z,33.4
2023-04-10T11:25:22.406Z,32.8
2023-04-10T11:26:23.322Z,31.7
2023-04-10T11:27:24.879Z,31.5
2023-04-10T11:28:25.152Z,31.8
2023-04-10T11:29:26.183Z,31.8
2023-04-10T11:30:27.404Z,32.6
2023-04-10T11:31:28.382Z,33.2
2023-04-10T11:32:29.559Z,32.6
2023-04-10T11:33:30.468Z,33.1
2023-04-10T11:34:31.555Z,34
2023-04-10T11:35:32.370Z,35.1
2023-04-10T11:36:33.524Z,34.7
2023-04-10T11:37:34.267Z,34.5
2023-04-10T11:38:35.458Z,34.9
2023-04-10T11:39:36.443Z,34.9
2023-04-10T11:40:37.584Z,34.6
2023-04-10T11:41:39.952Z,34.4
2023-04-10T11:42:41.412Z,34.9
2023-04-10T11:43:42.257Z,35.1
2023-04-10T11:44:43.307Z,34.1
2023-04-10T11:45:44.347Z,33.7
2023-04-10T11:46:45.310Z,33.5
2023-04-10T11:47:46.408Z,33.6
2023-04-10T11:48:47.479Z,33.9
2023-04-10T11:49:48.378Z,34.2
2023-04-10T11:50:49.515Z,35.2
2023-04-10T11:51:50.278Z,35.3
2023-04-10T11:52:52.529Z,35.8
2023-04-10T11:53:53.436Z,35.6
2023-04-10T11:54:54.389Z,35.6
2023-04-10T11:55:55.436Z,35.6
2023-04-10T11:56:56.355Z,35.3
2023-04-10T11:57:57.415Z,34.5
2023-04-10T11:58:58.317Z,33.9
2023-04-10T11:59:59.276Z,33.2
2023-04-10T12:01:00.277Z,33.2
2023-04-10T12:02:01.284Z,33.5
2023-04-10T12:03:02.728Z,33.3
2023-04-10T12:04:03.545Z,33.7
2023-04-10T12:05:04.242Z,33.4
2023-04-10T12:06:05.344Z,33.1
2023-04-10T12:07:06.618Z,32.7
2023-04-10T12:08:08.314Z,32.6
2023-04-10T12:09:09.396Z,32.6
2023-04-10T12:10:10.433Z,31.7
2023-04-10T12:11:11.393Z,31.2
2023-04-10T12:12:12.314Z,30.3
2023-04-10T12:13:13.336Z,29.6
2023-04-10T12:14:14.333Z,29.6
2023-04-10T12:15:15.234Z,29.6
2023-04-10T12:16:16.335Z,30.1
2023-04-10T12:17:17.404Z,30.3
2023-04-10T12:18:18.384Z,30.6
2023-04-10T12:19:19.443Z,31.7
2023-04-10T12:20:20.257Z,32.5
2023-04-10T12:21:21.374Z,32.6
2023-04-10T12:22:22.413Z,32.4
2023-04-10T12:23:23.401Z,32
2023-04-10T12:24:24.588Z,32.3
2023-04-10T12:25:25.424Z,32.4
2023-04-10T12:26:26.238Z,32.9
2023-04-10T12:27:27.258Z,33.6
2023-04-10T12:28:28.240Z,34.7
2023-04-10T12:29:29.358Z,35.5
2023-04-10T12:30:30.216Z,36
2023-04-10T12:31:31.315Z,35.9
2023-04-10T12:32:32.358Z,35.8
2023-04-10T12:33:33.390Z,35.6
2023-04-10T12:34:34.371Z,35.6
2023-04-10T12:35:35.333Z,35.5
2023-04-10T12:36:36.404Z,35.2
2023-04-10T12:37:37.432Z,34.3
2023-04-10T12:38:38.512Z,34.9
2023-04-10T12:39:39.759Z,34.6
2023-04-10T12:40:41.581Z,34.6
2023-04-10T12:41:42.306Z,34.5
2023-04-10T12:42:43.293Z,34.5
2023-04-10T12:43:44.348Z,33.8
2023-04-10T12:44:45.261Z,33.6
2023-04-10T12:45:46.201Z,33.3
2023-04-10T12:46:47.211Z,33.2
2023-04-10T12:47:48.531Z,32.9
2023-04-10T12:48:49.582Z,32.6
2023-04-10T12:49:50.431Z,32.3
2023-04-10T12:50:51.237Z,32.4
2023-04-10T12:51:52.451Z,32.6
2023-04-10T12:52:53.385Z,33.2
2023-04-10T12:53:54.378Z,33.4
2023-04-10T12:54:55.616Z,34.2
2023-04-10T12:55:56.614Z,34.6
2023-04-10T12:56:57.366Z,34.4
2023-04-10T12:57:58.464Z,34.7
2023-04-10T12:58:59.464Z,35.2
2023-04-10T13:00:00.304Z,35.1
2023-04-10T13:01:01.870Z,35.1
2023-04-10T13:02:03.781Z,35.2
2023-04-10T13:03:04.541Z,36.8
2023-04-10T13:04:05.532Z,37.4
2023-04-10T13:05:06.534Z,36.9
2023-04-10T13:06:07.386Z,35.4
2023-04-10T13:07:08.740Z,34.9
2023-04-10T13:08:10.500Z,34.6
2023-04-10T13:09:11.278Z,34.5
2023-04-10T13:10:12.369Z,34.7
2023-04-10T13:11:13.406Z,36.3
2023-04-10T13:12:14.357Z,34.8
2023-04-10T13:13:15.320Z,34.7
2023-04-10T13:14:16.321Z,34.7
2023-04-10T13:15:17.585Z,34.5
2023-04-10T13:16:18.589Z,34.7
2023-04-10T13:17:19.441Z,35.5
2023-04-10T13:18:20.345Z,35.2
2023-04-10T13:19:21.497Z,34.3
2023-04-10T13:20:22.394Z,34.5
2023-04-10T13:21:23.275Z,34.2
2023-04-10T13:22:24.544Z,34.6
2023-04-10T13:23:25.308Z,34.2
2023-04-10T13:24:26.297Z,34.7
2023-04-10T13:25:27.635Z,35.1
2023-04-10T13:26:28.484Z,35.5
2023-04-10T13:27:29.438Z,35.3
2023-04-10T13:28:30.581Z,34.9
2023-04-10T13:29:31.336Z,35.1
2023-04-10T13:30:32.368Z,35.3
2023-04-10T13:31:33.477Z,34.8
2023-04-10T13:32:34.430Z,34.3
2023-04-10T13:33:35.356Z,33.6
2023-04-10T13:34:36.466Z,33.9
2023-04-10T13:35:37.531Z,33.8
2023-04-10T13:36:38.691Z,33.1
2023-04-10T13:37:39.548Z,32.7